createdAt,value
2022-09-06T02:33:50.505Z,3.43
2022-09-06T02:38:55.965Z,3.40
2022-09-06T02:43:59.522Z,3.40
2022-09-06T02:49:04.002Z,3.10
2022-09-06T02:54:09.224Z,3.60
2022-09-06T02:59:12.711Z,3.53
2022-09-06T03:04:16.282Z,3.67
2022-09-06T03:09:21.240Z,3.50
2022-09-06T03:14:24.693Z,3.90
2022-09-06T03:19:28.164Z,3.80
2022-09-06T03:24:33.129Z,3.73
2022-09-06T03:29:36.643Z,3.63
2022-09-06T03:34:45.238Z,3.13
2022-09-06T03:39:50.322Z,3.43
2022-09-06T03:44:54.044Z,3.70
2022-09-06T03:49:57.555Z,3.47
2022-09-06T03:55:03.086Z,3.50
2022-09-06T04:00:07.340Z,3.30
2022-09-06T04:05:13.617Z,3.10
2022-09-06T04:10:18.979Z,3.43
2022-09-06T04:15:22.547Z,3.37
2022-09-06T04:20:26.064Z,3.90
2022-09-06T04:25:30.926Z,3.70
2022-09-06T04:30:34.411Z,3.40
2022-09-06T04:35:38.015Z,3.73
2022-09-06T04:40:42.936Z,4.00
2022-09-06T04:45:46.864Z,3.77
2022-09-06T04:50:50.521Z,4.37
2022-09-06T04:55:57.791Z,3.90
2022-09-06T05:01:01.367Z,2.90
2022-09-06T05:06:09.340Z,3.03
2022-09-06T05:11:14.685Z,3.13
2022-09-06T05:16:18.364Z,3.40
2022-09-06T05:21:23.729Z,3.00
2022-09-06T05:26:28.952Z,3.43
2022-09-06T05:31:33.958Z,3.00
2022-09-06T05:36:39.149Z,3.47
2022-09-06T05:41:44.406Z,3.27
2022-09-06T05:46:50.210Z,3.00
2022-09-06T05:51:53.849Z,3.20
2022-09-06T05:56:58.743Z,3.40
2022-09-06T06:02:06.613Z,3.23
2022-09-06T06:07:10.829Z,3.57
2022-09-06T06:12:16.248Z,3.87
2022-09-06T06:17:19.710Z,3.73
2022-09-06T06:22:23.408Z,3.70
2022-09-06T06:27:28.326Z,3.73
2022-09-06T06:32:31.769Z,4.20
2022-09-06T06:37:35.304Z,3.87
2022-09-06T06:42:40.142Z,3.90
2022-09-06T06:47:43.568Z,3.90
2022-09-06T06:52:46.919Z,3.83
2022-09-06T06:57:51.818Z,3.63
2022-09-06T07:02:56.135Z,3.63
2022-09-06T07:07:59.659Z,3.77
2022-09-06T07:13:04.639Z,3.90
2022-09-06T07:18:08.449Z,4.40
2022-09-06T07:28:36.874Z,3.80
2022-09-06T07:33:40.625Z,3.83
2022-09-06T07:38:44.314Z,3.37
2022-09-06T07:43:49.389Z,3.47
2022-09-06T07:48:53.034Z,4.00
2022-09-06T07:59:21.815Z,4.00
2022-09-06T08:04:25.300Z,3.73
2022-09-06T08:09:28.819Z,3.43
2022-09-06T08:14:33.886Z,3.63
2022-09-06T08:19:37.573Z,3.30
2022-09-06T08:24:41.197Z,3.30
2022-09-06T08:29:46.156Z,3.80
2022-09-06T08:34:49.961Z,4.00
2022-09-06T08:39:53.535Z,4.10
2022-09-06T08:45:00.718Z,4.10
2022-09-06T08:50:07.936Z,4.50
2022-09-06T08:55:34.991Z,4.43
2022-09-06T09:00:41.798Z,4.17
2022-09-06T09:05:49.114Z,4.27
2022-09-06T09:10:59.327Z,3.80
2022-09-06T09:16:05.849Z,4.23
2022-09-06T09:21:10.540Z,3.43
2022-09-06T09:26:17.066Z,4.00
2022-09-06T09:31:36.257Z,4.40
2022-09-06T09:36:40.060Z,4.87
2022-09-06T09:41:44.476Z,3.93
2022-09-06T09:46:52.248Z,4.03
2022-09-06T09:52:08.551Z,4.13
2022-09-06T09:57:13.495Z,4.50
2022-09-06T10:02:26.399Z,4.17
2022-09-06T10:07:30.349Z,4.40
2022-09-06T10:12:35.719Z,5.17
2022-09-06T10:17:50.761Z,4.67
2022-09-06T10:23:03.142Z,4.60
2022-09-06T10:28:31.425Z,4.57
2022-09-06T10:33:43.764Z,3.70
2022-09-06T10:38:54.967Z,4.17
2022-09-06T10:44:07.811Z,3.70
2022-09-06T10:49:19.097Z,3.90
2022-09-06T10:54:24.354Z,3.23
2022-09-06T11:10:16.414Z,2.83
2022-09-06T11:15:22.200Z,3.47
2022-09-06T11:20:35.185Z,3.10
2022-09-06T11:26:10.062Z,3.05
2022-09-06T11:36:50.825Z,2.97
2022-09-06T11:41:54.412Z,2.80
2022-09-06T11:47:06.157Z,2.80
2022-09-06T11:52:59.597Z,2.60
2022-09-06T11:58:08.166Z,2.92
2022-09-06T12:08:56.525Z,2.97
2022-09-06T12:14:04.530Z,2.95
2022-09-06T12:19:08.592Z,3.63
2022-09-06T12:24:50.557Z,3.40
2022-09-06T12:29:59.629Z,3.10
2022-09-06T12:40:30.712Z,2.47
2022-09-06T12:45:35.702Z,2.60
2022-09-06T12:50:40.658Z,3.25
2022-09-06T12:55:44.187Z,2.95
2022-09-06T13:00:54.892Z,2.92
2022-09-06T13:06:00.643Z,3.10
2022-09-06T13:11:06.762Z,2.55
2022-09-06T13:16:11.853Z,2.60
2022-09-06T13:21:27.055Z,2.55
2022-09-06T13:26:38.942Z,2.75
2022-09-06T13:31:47.726Z,3.20
2022-09-06T13:36:52.671Z,2.92
2022-09-06T13:41:57.876Z,2.92
2022-09-06T13:47:03.085Z,2.78
2022-09-06T13:52:07.419Z,2.65
2022-09-06T13:57:11.240Z,2.60
2022-09-06T14:02:19.628Z,2.50
2022-09-06T14:07:23.179Z,2.60
2022-09-06T14:12:26.694Z,2.80
2022-09-06T14:17:33.101Z,2.83
2022-09-06T14:22:36.528Z,3.15
2022-09-06T14:27:40.479Z,3.20
2022-09-06T14:32:45.310Z,3.13
2022-09-06T14:37:49.347Z,3.08
2022-09-06T14:43:08.022Z,3.13
2022-09-06T14:48:11.465Z,2.83
2022-09-06T14:53:38.850Z,2.47
2022-09-06T14:58:42.007Z,2.40
2022-09-06T15:03:48.682Z,2.70
2022-09-06T15:08:56.922Z,2.80
2022-09-06T15:14:04.733Z,3.05
2022-09-06T15:19:09.083Z,2.70
2022-09-06T15:24:12.581Z,2.67
2022-09-06T15:29:17.655Z,2.22
2022-09-06T15:34:22.253Z,2.90
2022-09-06T15:39:25.793Z,2.40
2022-09-06T15:44:30.814Z,2.40
2022-09-06T15:49:34.611Z,2.10
2022-09-06T15:54:55.296Z,2.10
2022-09-06T16:00:00.266Z,2.28
2022-09-06T16:05:03.827Z,2.35
2022-09-06T16:10:07.808Z,1.88
2022-09-06T16:15:13.755Z,2.00
2022-09-06T16:20:17.397Z,2.10
2022-09-06T16:25:21.234Z,2.08
2022-09-06T16:30:26.142Z,2.22
2022-09-06T16:35:29.642Z,1.83
2022-09-06T16:40:46.165Z,2.00
2022-09-06T16:45:59.190Z,1.90
2022-09-06T16:51:11.220Z,1.70
2022-09-06T16:56:18.088Z,1.97
2022-09-06T17:01:24.136Z,2.37
2022-09-06T17:06:27.797Z,2.00
2022-09-06T17:11:31.684Z,2.20
2022-09-06T17:16:54.027Z,2.53
2022-09-06T17:21:57.652Z,1.97
2022-09-06T17:27:01.224Z,2.13
2022-09-06T17:32:10.560Z,2.47
2022-09-06T17:37:14.519Z,2.47
2022-09-06T17:42:18.323Z,2.60
2022-09-06T17:47:23.648Z,2.30
2022-09-06T17:52:27.438Z,2.67
2022-09-06T17:57:31.426Z,2.40
2022-09-06T18:02:37.957Z,2.70
2022-09-06T18:07:42.300Z,2.27
2022-09-06T18:12:46.210Z,2.73
2022-09-06T18:17:53.567Z,2.23
2022-09-06T18:29:24.071Z,1.40
2022-09-06T18:35:27.944Z,1.30
2022-09-06T19:28:27.957Z,1.80
2022-09-06T19:40:57.802Z,1.90
2022-09-06T19:59:44.342Z,1.40
2022-09-06T21:56:04.844Z,1.40
2022-09-06T22:02:35.269Z,1.13
2022-09-06T22:08:33.846Z,1.80
2022-09-06T22:20:56.676Z,1.53
2022-09-06T22:58:26.678Z,3.07
2022-09-06T23:04:55.909Z,3.40
2022-09-06T23:48:42.325Z,3.83
